Terminal Aerodrome Forecast
Issued by NWS Greer, SC

Home | Current Version | Previous Version | Text Only | Print | Product List | Glossary On
Versions: 1 2 3 4 5 6 7 8 9 10 11 12 13 14 15 16
500
FTUS42 KGSP 140520
TAFGSP
TAF
KGSP 140520Z 1406/1506 04005KT P6SM SCT250
     FM141000 06005KT P6SM BKN100
     FM142000 10006KT P6SM BKN060
     FM150300 08004KT P6SM OVC040 PROB30 1503/1506 4SM -SN OVC025=

USA.gov is the U.S. government's official web portal to all federal, state and local government web resources and services.